sensor_id;sensor_type;location;lat;lon;timestamp;pressure;altitude;pressure_sealevel;temperature;humidity
70968;BME280;58629;48.808;8.820;2023-02-12T00:01:18;99057.72;;;2.75;94.75
70968;BME280;58629;48.808;8.820;2023-02-12T00:03:44;99052.03;;;2.73;94.92
70968;BME280;58629;48.808;8.820;2023-02-12T00:06:10;99061.84;;;2.76;94.89
70968;BME280;58629;48.808;8.820;2023-02-12T00:08:36;99053.69;;;2.78;95.39
70968;BME280;58629;48.808;8.820;2023-02-12T00:11:14;99051.38;;;2.76;95.00
70968;BME280;58629;48.808;8.820;2023-02-12T00:13:40;99044.91;;;2.74;95.81
70968;BME280;58629;48.808;8.820;2023-02-12T00:16:11;99046.47;;;2.75;95.40
70968;BME280;58629;48.808;8.820;2023-02-12T00:18:37;99048.78;;;2.76;95.57
70968;BME280;58629;48.808;8.820;2023-02-12T00:21:03;99045.09;;;2.77;95.55
70968;BME280;58629;48.808;8.820;2023-02-12T00:23:28;99047.53;;;2.74;95.80
70968;BME280;58629;48.808;8.820;2023-02-12T00:25:54;99049.09;;;2.75;96.09
70968;BME280;58629;48.808;8.820;2023-02-12T00:28:19;99056.16;;;2.74;95.64
70968;BME280;58629;48.808;8.820;2023-02-12T00:30:44;99057.72;;;2.75;96.21
70968;BME280;58629;48.808;8.820;2023-02-12T00:33:09;99064.47;;;2.76;95.41
70968;BME280;58629;48.808;8.820;2023-02-12T00:35:35;99064.47;;;2.76;95.88
70968;BME280;58629;48.808;8.820;2023-02-12T00:38:00;99062.47;;;2.73;95.63
70968;BME280;58629;48.808;8.820;2023-02-12T00:40:25;99058.94;;;2.69;95.59
70968;BME280;58629;48.808;8.820;2023-02-12T00:42:51;99061.69;;;2.64;96.30
70968;BME280;58629;48.808;8.820;2023-02-12T00:45:16;99073.06;;;2.59;97.46
70968;BME280;58629;48.808;8.820;2023-02-12T00:47:42;99060.31;;;2.58;96.99
70968;BME280;58629;48.808;8.820;2023-02-12T00:50:07;99073.53;;;2.61;97.08
70968;BME280;58629;48.808;8.820;2023-02-12T00:52:33;99075.88;;;2.63;97.10
70968;BME280;58629;48.808;8.820;2023-02-12T00:54:58;99072.94;;;2.64;96.95
70968;BME280;58629;48.808;8.820;2023-02-12T00:57:23;99080.78;;;2.64;96.78
70968;BME280;58629;48.808;8.820;2023-02-12T00:59:49;99081.25;;;2.67;96.50
70968;BME280;58629;48.808;8.820;2023-02-12T01:02:14;99083.84;;;2.67;96.07
70968;BME280;58629;48.808;8.820;2023-02-12T01:04:39;99078.63;;;2.67;96.36
70968;BME280;58629;48.808;8.820;2023-02-12T01:07:04;99079.69;;;2.65;95.81
70968;BME280;58629;48.808;8.820;2023-02-12T01:09:30;99084.44;;;2.63;96.24
70968;BME280;58629;48.808;8.820;2023-02-12T01:11:55;99086.59;;;2.61;96.04
70968;BME280;58629;48.808;8.820;2023-02-12T01:14:20;99079.06;;;2.60;96.28
70968;BME280;58629;48.808;8.820;2023-02-12T01:16:46;99082.00;;;2.58;95.80
70968;BME280;58629;48.808;8.820;2023-02-12T01:19:11;99083.84;;;2.58;96.49
70968;BME280;58629;48.808;8.820;2023-02-12T01:21:37;99078.59;;;2.58;96.14
70968;BME280;58629;48.808;8.820;2023-02-12T01:24:03;99086.91;;;2.60;95.87
70968;BME280;58629;48.808;8.820;2023-02-12T01:26:29;99087.38;;;2.62;96.26
70968;BME280;58629;48.808;8.820;2023-02-12T01:28:58;99078.94;;;2.65;96.19
70968;BME280;58629;48.808;8.820;2023-02-12T01:31:28;99085.69;;;2.66;95.92
70968;BME280;58629;48.808;8.820;2023-02-12T01:33:55;99081.72;;;2.69;96.29
70968;BME280;58629;48.808;8.820;2023-02-12T01:36:21;99077.72;;;2.71;96.43
70968;BME280;58629;48.808;8.820;2023-02-12T01:38:48;99083.69;;;2.72;96.26
70968;BME280;58629;48.808;8.820;2023-02-12T01:41:19;99082.31;;;2.74;96.34
70968;BME280;58629;48.808;8.820;2023-02-12T01:44:02;99084.63;;;2.76;96.13
70968;BME280;58629;48.808;8.820;2023-02-12T01:46:29;99082.94;;;2.80;96.26
70968;BME280;58629;48.808;8.820;2023-02-12T01:48:54;99075.09;;;2.80;95.93
70968;BME280;58629;48.808;8.820;2023-02-12T01:51:21;99072.94;;;2.82;95.83
70968;BME280;58629;48.808;8.820;2023-02-12T01:53:54;99075.53;;;2.82;95.80
70968;BME280;58629;48.808;8.820;2023-02-12T01:56:23;99072.47;;;2.80;95.71
70968;BME280;58629;48.808;8.820;2023-02-12T01:58:50;99074.47;;;2.74;96.48
70968;BME280;58629;48.808;8.820;2023-02-12T02:01:27;99066.00;;;2.69;96.45
70968;BME280;58629;48.808;8.820;2023-02-12T02:04:01;99078.75;;;2.61;97.51
70968;BME280;58629;48.808;8.820;2023-02-12T02:06:31;99074.16;;;2.58;97.82
70968;BME280;58629;48.808;8.820;2023-02-12T02:08:57;99075.06;;;2.54;98.67
70968;BME280;58629;48.808;8.820;2023-02-12T02:11:23;99067.53;;;2.52;99.08
70968;BME280;58629;48.808;8.820;2023-02-12T02:14:06;99061.25;;;2.53;99.09
70968;BME280;58629;48.808;8.820;2023-02-12T02:25:47;99052.94;;;2.51;98.06
70968;BME280;58629;48.808;8.820;2023-02-12T02:30:59;99046.47;;;2.49;98.24
70968;BME280;58629;48.808;8.820;2023-02-12T02:33:37;99054.78;;;2.51;98.13
70968;BME280;58629;48.808;8.820;2023-02-12T02:36:14;99055.84;;;2.50;97.85
70968;BME280;58629;48.808;8.820;2023-02-12T02:38:56;99052.00;;;2.47;97.79
70968;BME280;58629;48.808;8.820;2023-02-12T02:41:37;99052.00;;;2.47;98.05
70968;BME280;58629;48.808;8.820;2023-02-12T02:44:23;99055.38;;;2.48;98.03
70968;BME280;58629;48.808;8.820;2023-02-12T02:46:51;99052.75;;;2.48;97.87
70968;BME280;58629;48.808;8.820;2023-02-12T02:49:26;99047.53;;;2.48;98.28
70968;BME280;58629;48.808;8.820;2023-02-12T02:52:02;99044.63;;;2.49;98.08
70968;BME280;58629;48.808;8.820;2023-02-12T02:54:33;99042.75;;;2.50;98.15
70968;BME280;58629;48.808;8.820;2023-02-12T02:57:05;99044.00;;;2.52;98.33
70968;BME280;58629;48.808;8.820;2023-02-12T02:59:35;99041.69;;;2.51;98.17
70968;BME280;58629;48.808;8.820;2023-02-12T03:02:15;99043.84;;;2.49;98.43
70968;BME280;58629;48.808;8.820;2023-02-12T03:04:45;99046.63;;;2.52;98.95
70968;BME280;58629;48.808;8.820;2023-02-12T03:07:17;99047.06;;;2.54;98.60
70968;BME280;58629;48.808;8.820;2023-02-12T03:09:52;99034.00;;;2.54;98.27
70968;BME280;58629;48.808;8.820;2023-02-12T03:12:28;99039.69;;;2.56;98.35
70968;BME280;58629;48.808;8.820;2023-02-12T03:15:08;99043.41;;;2.55;98.58
70968;BME280;58629;48.808;8.820;2023-02-12T03:17:43;99042.63;;;2.55;98.46
70968;BME280;58629;48.808;8.820;2023-02-12T03:22:47;99043.41;;;2.55;98.26
70968;BME280;58629;48.808;8.820;2023-02-12T03:25:17;99037.72;;;2.53;98.43
70968;BME280;58629;48.808;8.820;2023-02-12T03:27:50;99041.69;;;2.51;98.54
70968;BME280;58629;48.808;8.820;2023-02-12T03:30:16;99040.44;;;2.48;98.81
70968;BME280;58629;48.808;8.820;2023-02-12T03:35:22;99051.38;;;2.50;99.46
70968;BME280;58629;48.808;8.820;2023-02-12T03:40:44;99048.75;;;2.50;99.50
70968;BME280;58629;48.808;8.820;2023-02-12T03:43:24;99046.16;;;2.50;99.17
70968;BME280;58629;48.808;8.820;2023-02-12T03:48:27;99051.06;;;2.52;99.10
70968;BME280;58629;48.808;8.820;2023-02-12T03:51:00;99042.94;;;2.53;99.28
70968;BME280;58629;48.808;8.820;2023-02-12T03:53:28;99053.41;;;2.53;98.44
70968;BME280;58629;48.808;8.820;2023-02-12T03:56:00;99047.97;;;2.50;98.34
70968;BME280;58629;48.808;8.820;2023-02-12T03:58:28;99052.28;;;2.46;98.59
70968;BME280;58629;48.808;8.820;2023-02-12T04:00:54;99057.53;;;2.46;98.84
70968;BME280;58629;48.808;8.820;2023-02-12T04:03:20;99052.00;;;2.47;98.55
70968;BME280;58629;48.808;8.820;2023-02-12T04:05:46;99050.44;;;2.46;99.12
70968;BME280;58629;48.808;8.820;2023-02-12T04:08:11;99052.75;;;2.48;99.19
70968;BME280;58629;48.808;8.820;2023-02-12T04:10:59;99052.94;;;2.51;99.00
70968;BME280;58629;48.808;8.820;2023-02-12T04:13:38;99050.78;;;2.53;98.77
70968;BME280;58629;48.808;8.820;2023-02-12T04:18:55;99056.47;;;2.55;98.51
70968;BME280;58629;48.808;8.820;2023-02-12T04:21:38;99056.16;;;2.57;98.48
70968;BME280;58629;48.808;8.820;2023-02-12T04:26:44;99055.38;;;2.56;97.91
70968;BME280;58629;48.808;8.820;2023-02-12T04:29:22;99063.69;;;2.58;98.50
70968;BME280;58629;48.808;8.820;2023-02-12T04:32:13;99068.31;;;2.61;98.60
70968;BME280;58629;48.808;8.820;2023-02-12T04:34:55;99076.91;;;2.62;98.36
70968;BME280;58629;48.808;8.820;2023-02-12T04:37:30;99074.47;;;2.65;98.54
70968;BME280;58629;48.808;8.820;2023-02-12T04:39:58;99067.69;;;2.64;98.09
70968;BME280;58629;48.808;8.820;2023-02-12T04:42:24;99072.94;;;2.64;98.32
70968;BME280;58629;48.808;8.820;2023-02-12T04:44:50;99073.25;;;2.63;98.22
70968;BME280;58629;48.808;8.820;2023-02-12T04:47:15;99075.41;;;2.61;98.55
70968;BME280;58629;48.808;8.820;2023-02-12T04:49:41;99071.22;;;2.60;98.04
70968;BME280;58629;48.808;8.820;2023-02-12T04:52:07;99075.69;;;2.59;98.12
70968;BME280;58629;48.808;8.820;2023-02-12T04:54:32;99074.94;;;2.59;98.56
70968;BME280;58629;48.808;8.820;2023-02-12T04:56:58;99073.53;;;2.53;98.74
70968;BME280;58629;48.808;8.820;2023-02-12T04:59:23;99072.75;;;2.52;98.85
70968;BME280;58629;48.808;8.820;2023-02-12T05:01:48;99070.16;;;2.52;99.20
70968;BME280;58629;48.808;8.820;2023-02-12T05:04:15;99074.00;;;2.55;99.09
70968;BME280;58629;48.808;8.820;2023-02-12T05:06:41;99077.09;;;2.57;99.31
70968;BME280;58629;48.808;8.820;2023-02-12T05:09:08;99077.88;;;2.57;99.23
70968;BME280;58629;48.808;8.820;2023-02-12T05:11:34;99069.25;;;2.57;99.13
70968;BME280;58629;48.808;8.820;2023-02-12T05:13:59;99068.47;;;2.56;98.95
70968;BME280;58629;48.808;8.820;2023-02-12T05:16:25;99072.31;;;2.59;99.20
70968;BME280;58629;48.808;8.820;2023-02-12T05:18:50;99068.59;;;2.60;99.23
70968;BME280;58629;48.808;8.820;2023-02-12T05:21:16;99064.16;;;2.60;98.92
70968;BME280;58629;48.808;8.820;2023-02-12T05:23:42;99073.69;;;2.56;98.69
70968;BME280;58629;48.808;8.820;2023-02-12T05:26:11;99073.69;;;2.56;99.13
70968;BME280;58629;48.808;8.820;2023-02-12T05:28:36;99075.84;;;2.54;99.35
70968;BME280;58629;48.808;8.820;2023-02-12T05:31:04;99077.22;;;2.52;98.67
70968;BME280;58629;48.808;8.820;2023-02-12T05:33:30;99077.06;;;2.48;99.00
70968;BME280;58629;48.808;8.820;2023-02-12T05:35:55;99087.84;;;2.47;100.00
70968;BME280;58629;48.808;8.820;2023-02-12T05:38:26;99077.50;;;2.42;100.00
70968;BME280;58629;48.808;8.820;2023-02-12T05:40:51;99074.44;;;2.40;100.00
70968;BME280;58629;48.808;8.820;2023-02-12T05:43:17;99074.44;;;2.40;100.00
70968;BME280;58629;48.808;8.820;2023-02-12T05:45:42;99070.44;;;2.42;100.00
70968;BME280;58629;48.808;8.820;2023-02-12T05:48:09;99075.06;;;2.45;100.00
70968;BME280;58629;48.808;8.820;2023-02-12T05:50:35;99072.59;;;2.49;100.00
70968;BME280;58629;48.808;8.820;2023-02-12T05:53:01;99074.91;;;2.50;100.00
70968;BME280;58629;48.808;8.820;2023-02-12T05:55:26;99074.44;;;2.48;100.00
70968;BME280;58629;48.808;8.820;2023-02-12T05:57:52;99068.16;;;2.49;99.70
70968;BME280;58629;48.808;8.820;2023-02-12T06:00:17;99078.63;;;2.49;99.91
70968;BME280;58629;48.808;8.820;2023-02-12T06:02:43;99076.75;;;2.50;99.85
70968;BME280;58629;48.808;8.820;2023-02-12T06:05:08;99077.22;;;2.52;99.84
70968;BME280;58629;48.808;8.820;2023-02-12T06:07:33;99074.31;;;2.53;99.66
70968;BME280;58629;48.808;8.820;2023-02-12T06:09:59;99063.53;;;2.55;99.47
70968;BME280;58629;48.808;8.820;2023-02-12T06:12:24;99071.53;;;2.58;99.24
70968;BME280;58629;48.808;8.820;2023-02-12T06:14:49;99064.16;;;2.60;99.08
70968;BME280;58629;48.808;8.820;2023-02-12T06:17:15;99066.78;;;2.60;98.94
70968;BME280;58629;48.808;8.820;2023-02-12T06:19:40;99059.56;;;2.57;98.87
70968;BME280;58629;48.808;8.820;2023-02-12T06:22:05;99062.00;;;2.54;99.36
70968;BME280;58629;48.808;8.820;2023-02-12T06:24:31;99065.53;;;2.58;99.67
70968;BME280;58629;48.808;8.820;2023-02-12T06:26:56;99065.84;;;2.56;99.57
70968;BME280;58629;48.808;8.820;2023-02-12T06:29:21;99066.16;;;2.55;99.43
70968;BME280;58629;48.808;8.820;2023-02-12T06:31:47;99069.56;;;2.55;99.38
70968;BME280;58629;48.808;8.820;2023-02-12T06:34:13;99075.84;;;2.54;99.05
70968;BME280;58629;48.808;8.820;2023-02-12T06:36:42;99078.00;;;2.52;99.15
70968;BME280;58629;48.808;8.820;2023-02-12T06:39:09;99078.47;;;2.54;98.85
70968;BME280;58629;48.808;8.820;2023-02-12T06:41:35;99093.09;;;2.55;99.69
70968;BME280;58629;48.808;8.820;2023-02-12T06:44:00;99094.00;;;2.59;99.35
70968;BME280;58629;48.808;8.820;2023-02-12T06:46:26;99094.75;;;2.60;99.51
70968;BME280;58629;48.808;8.820;2023-02-12T06:48:55;99095.22;;;2.62;99.31
70968;BME280;58629;48.808;8.820;2023-02-12T06:51:22;99095.38;;;2.65;99.30
70968;BME280;58629;48.808;8.820;2023-02-12T06:53:48;99091.72;;;2.67;99.14
70968;BME280;58629;48.808;8.820;2023-02-12T06:56:13;99102.16;;;2.67;98.94
70968;BME280;58629;48.808;8.820;2023-02-12T06:58:40;99099.88;;;2.65;98.77
70968;BME280;58629;48.808;8.820;2023-02-12T07:01:18;99095.22;;;2.62;99.18
70968;BME280;58629;48.808;8.820;2023-02-12T07:03:50;99103.53;;;2.64;99.76
70968;BME280;58629;48.808;8.820;2023-02-12T07:06:16;99103.53;;;2.64;99.82
70968;BME280;58629;48.808;8.820;2023-02-12T07:08:42;99105.69;;;2.62;100.00
70968;BME280;58629;48.808;8.820;2023-02-12T07:11:07;99101.25;;;2.62;100.00
70968;BME280;58629;48.808;8.820;2023-02-12T07:13:33;99104.00;;;2.66;100.00
70968;BME280;58629;48.808;8.820;2023-02-12T07:16:10;99110.47;;;2.69;100.00
70968;BME280;58629;48.808;8.820;2023-02-12T07:18:36;99106.50;;;2.71;100.00
70968;BME280;58629;48.808;8.820;2023-02-12T07:21:03;99105.88;;;2.74;99.88
70968;BME280;58629;48.808;8.820;2023-02-12T07:23:28;99110.78;;;2.76;99.63
70968;BME280;58629;48.808;8.820;2023-02-12T07:26:01;99110.50;;;2.77;99.67
70968;BME280;58629;48.808;8.820;2023-02-12T07:28:27;99106.47;;;2.80;99.48
70968;BME280;58629;48.808;8.820;2023-02-12T07:30:53;99110.19;;;2.79;99.21
70968;BME280;58629;48.808;8.820;2023-02-12T07:33:19;99111.25;;;2.78;99.15
70968;BME280;58629;48.808;8.820;2023-02-12T07:35:45;99106.47;;;2.80;99.08
70968;BME280;58629;48.808;8.820;2023-02-12T07:38:13;99104.63;;;2.80;99.42
70968;BME280;58629;48.808;8.820;2023-02-12T07:40:39;99099.56;;;2.84;99.91
70968;BME280;58629;48.808;8.820;2023-02-12T07:43:04;99106.94;;;2.90;99.53
70968;BME280;58629;48.808;8.820;2023-02-12T07:45:29;99102.00;;;2.97;99.90
70968;BME280;58629;48.808;8.820;2023-02-12T07:47:55;99106.94;;;3.07;99.78
70968;BME280;58629;48.808;8.820;2023-02-12T07:50:20;99108.03;;;3.15;99.73
70968;BME280;58629;48.808;8.820;2023-02-12T07:52:47;99110.16;;;3.21;99.83
70968;BME280;58629;48.808;8.820;2023-02-12T07:55:13;99114.16;;;3.27;99.80
70968;BME280;58629;48.808;8.820;2023-02-12T07:57:38;99106.47;;;3.31;98.99
70968;BME280;58629;48.808;8.820;2023-02-12T08:00:04;99107.09;;;3.36;99.14
70968;BME280;58629;48.808;8.820;2023-02-12T08:02:30;99109.53;;;3.41;99.13
70968;BME280;58629;48.808;8.820;2023-02-12T08:04:56;99110.13;;;3.47;98.64
70968;BME280;58629;48.808;8.820;2023-02-12T08:07:22;99110.00;;;3.52;98.99
70968;BME280;58629;48.808;8.820;2023-02-12T08:09:47;99108.75;;;3.58;98.72
70968;BME280;58629;48.808;8.820;2023-02-12T08:12:13;99105.50;;;3.61;98.55
70968;BME280;58629;48.808;8.820;2023-02-12T08:14:38;99100.09;;;3.66;98.72
70968;BME280;58629;48.808;8.820;2023-02-12T08:17:03;99094.22;;;3.69;98.18
70968;BME280;58629;48.808;8.820;2023-02-12T08:19:28;99088.03;;;3.74;98.25
70968;BME280;58629;48.808;8.820;2023-02-12T08:21:55;99094.66;;;3.80;98.27
70968;BME280;58629;48.808;8.820;2023-02-12T08:24:20;99097.09;;;3.85;98.29
70968;BME280;58629;48.808;8.820;2023-02-12T08:26:46;99096.94;;;3.90;97.82
70968;BME280;58629;48.808;8.820;2023-02-12T08:29:15;99097.53;;;3.95;97.74
70968;BME280;58629;48.808;8.820;2023-02-12T08:31:43;99092.53;;;4.02;97.79
70968;BME280;58629;48.808;8.820;2023-02-12T08:34:22;99095.00;;;4.07;97.54
70968;BME280;58629;48.808;8.820;2023-02-12T08:36:49;99097.44;;;4.12;97.55
70968;BME280;58629;48.808;8.820;2023-02-12T08:39:15;99095.44;;;4.18;97.70
70968;BME280;58629;48.808;8.820;2023-02-12T08:41:41;99096.75;;;4.24;98.11
70968;BME280;58629;48.808;8.820;2023-02-12T08:44:08;99101.84;;;4.29;97.99
70968;BME280;58629;48.808;8.820;2023-02-12T08:46:35;99103.97;;;4.35;98.14
70968;BME280;58629;48.808;8.820;2023-02-12T08:49:15;99103.00;;;4.40;97.88
70968;BME280;58629;48.808;8.820;2023-02-12T08:51:44;99106.06;;;4.42;98.46
70968;BME280;58629;48.808;8.820;2023-02-12T08:54:12;99106.97;;;4.46;98.53
70968;BME280;58629;48.808;8.820;2023-02-12T08:56:38;99114.22;;;4.49;98.68
70968;BME280;58629;48.808;8.820;2023-02-12T08:59:05;99111.41;;;4.54;98.63
70968;BME280;58629;48.808;8.820;2023-02-12T09:01:35;99105.22;;;4.59;98.45
70968;BME280;58629;48.808;8.820;2023-02-12T09:04:03;99112.88;;;4.64;98.59
70968;BME280;58629;48.808;8.820;2023-02-12T09:06:31;99110.72;;;4.66;98.57
70968;BME280;58629;48.808;8.820;2023-02-12T09:08:57;99111.63;;;4.70;98.42
70968;BME280;58629;48.808;8.820;2023-02-12T09:11:25;99112.97;;;4.76;98.14
70968;BME280;58629;48.808;8.820;2023-02-12T09:13:58;99113.88;;;4.80;97.91
70968;BME280;58629;48.808;8.820;2023-02-12T09:16:25;99120.78;;;4.84;97.83
70968;BME280;58629;48.808;8.820;2023-02-12T09:18:50;99120.28;;;4.91;97.91
70968;BME280;58629;48.808;8.820;2023-02-12T09:21:16;99117.47;;;4.96;97.35
70968;BME280;58629;48.808;8.820;2023-02-12T09:23:43;99115.09;;;5.03;96.88
70968;BME280;58629;48.808;8.820;2023-02-12T09:26:10;99116.75;;;5.07;96.75
70968;BME280;58629;48.808;8.820;2023-02-12T09:28:36;99116.56;;;5.12;96.91
70968;BME280;58629;48.808;8.820;2023-02-12T09:31:06;99111.88;;;5.18;96.66
70968;BME280;58629;48.808;8.820;2023-02-12T09:33:33;99122.16;;;5.23;96.16
70968;BME280;58629;48.808;8.820;2023-02-12T09:36:09;99124.28;;;5.29;96.21
70968;BME280;58629;48.808;8.820;2023-02-12T09:38:35;99121.47;;;5.35;95.56
70968;BME280;58629;48.808;8.820;2023-02-12T09:41:20;99123.88;;;5.40;95.31
70968;BME280;58629;48.808;8.820;2023-02-12T09:43:59;99129.25;;;5.43;95.15
70968;BME280;58629;48.808;8.820;2023-02-12T09:46:31;99125.66;;;5.48;95.24
70968;BME280;58629;48.808;8.820;2023-02-12T09:49:07;99122.19;;;5.56;96.06
70968;BME280;58629;48.808;8.820;2023-02-12T09:51:38;99118.06;;;5.79;99.32
70968;BME280;58629;48.808;8.820;2023-02-12T09:54:06;99115.84;;;5.89;97.30
70968;BME280;58629;48.808;8.820;2023-02-12T09:56:36;99119.81;;;6.07;96.16
70968;BME280;58629;48.808;8.820;2023-02-12T09:59:05;99117.19;;;6.20;95.13
70968;BME280;58629;48.808;8.820;2023-02-12T10:01:31;99110.03;;;6.44;95.04
70968;BME280;58629;48.808;8.820;2023-02-12T10:03:57;99116.22;;;6.88;94.25
70968;BME280;58629;48.808;8.820;2023-02-12T10:06:29;99115.56;;;7.46;91.46
70968;BME280;58629;48.808;8.820;2023-02-12T10:17:12;99107.47;;;8.64;80.43
70968;BME280;58629;48.808;8.820;2023-02-12T10:27:58;99102.13;;;8.80;76.42
70968;BME280;58629;48.808;8.820;2023-02-12T10:30:34;99102.44;;;8.74;76.72
70968;BME280;58629;48.808;8.820;2023-02-12T10:33:06;99100.50;;;8.91;75.20
70968;BME280;58629;48.808;8.820;2023-02-12T10:35:44;99103.06;;;8.87;74.44
70968;BME280;58629;48.808;8.820;2023-02-12T10:38:26;99101.59;;;8.70;73.99
70968;BME280;58629;48.808;8.820;2023-02-12T10:40:53;99097.81;;;8.71;75.48
70968;BME280;58629;48.808;8.820;2023-02-12T10:43:22;99104.41;;;8.62;75.45
70968;BME280;58629;48.808;8.820;2023-02-12T10:45:48;99103.63;;;8.77;75.61
70968;BME280;58629;48.808;8.820;2023-02-12T10:48:20;99101.53;;;8.67;75.30
70968;BME280;58629;48.808;8.820;2023-02-12T10:53:24;99097.50;;;8.73;75.93
70968;BME280;58629;48.808;8.820;2023-02-12T10:56:21;99102.38;;;8.90;74.77
70968;BME280;58629;48.808;8.820;2023-02-12T11:01:34;99088.94;;;9.18;72.86
70968;BME280;58629;48.808;8.820;2023-02-12T11:07:04;99079.94;;;9.41;72.17
70968;BME280;58629;48.808;8.820;2023-02-12T11:09:37;99083.78;;;9.44;71.32
70968;BME280;58629;48.808;8.820;2023-02-12T11:12:38;99078.59;;;9.51;71.19
70968;BME280;58629;48.808;8.820;2023-02-12T11:15:12;99075.16;;;9.70;71.70
70968;BME280;58629;48.808;8.820;2023-02-12T11:17:40;99074.75;;;9.68;71.15
70968;BME280;58629;48.808;8.820;2023-02-12T11:23:01;99076.56;;;9.63;70.40
70968;BME280;58629;48.808;8.820;2023-02-12T11:25:33;99071.91;;;9.80;69.65
70968;BME280;58629;48.808;8.820;2023-02-12T11:30:25;99062.63;;;9.89;68.93
70968;BME280;58629;48.808;8.820;2023-02-12T11:32:50;99066.16;;;9.74;68.27
70968;BME280;58629;48.808;8.820;2023-02-12T11:35:21;99070.41;;;9.37;69.57
70968;BME280;58629;48.808;8.820;2023-02-12T11:37:57;99069.81;;;8.86;71.94
70968;BME280;58629;48.808;8.820;2023-02-12T11:40:24;99074.81;;;8.53;74.12
70968;BME280;58629;48.808;8.820;2023-02-12T11:43:00;99067.84;;;8.45;74.87
70968;BME280;58629;48.808;8.820;2023-02-12T11:45:32;99070.94;;;8.16;75.70
70968;BME280;58629;48.808;8.820;2023-02-12T11:47:58;99065.84;;;8.07;76.36
70968;BME280;58629;48.808;8.820;2023-02-12T11:50:29;99063.38;;;7.99;77.28
70968;BME280;58629;48.808;8.820;2023-02-12T11:53:06;99067.56;;;7.84;77.25
70968;BME280;58629;48.808;8.820;2023-02-12T11:55:38;99065.34;;;7.70;78.00
70968;BME280;58629;48.808;8.820;2023-02-12T11:58:15;99060.75;;;7.67;78.77
70968;BME280;58629;48.808;8.820;2023-02-12T12:01:00;99069.66;;;7.63;79.07
70968;BME280;58629;48.808;8.820;2023-02-12T12:03:48;99067.88;;;7.67;79.31
70968;BME280;58629;48.808;8.820;2023-02-12T12:06:40;99075.28;;;7.61;79.24
70968;BME280;58629;48.808;8.820;2023-02-12T12:11:57;99068.38;;;7.57;79.14
70968;BME280;58629;48.808;8.820;2023-02-12T12:14:30;99064.31;;;7.59;79.48
70968;BME280;58629;48.808;8.820;2023-02-12T12:17:11;99065.31;;;7.55;79.79
70968;BME280;58629;48.808;8.820;2023-02-12T12:20:03;99061.59;;;7.56;80.27
70968;BME280;58629;48.808;8.820;2023-02-12T12:22:48;99058.78;;;7.64;79.81
70968;BME280;58629;48.808;8.820;2023-02-12T12:25:25;99052.75;;;7.64;79.95
70968;BME280;58629;48.808;8.820;2023-02-12T12:28:09;99055.31;;;7.60;80.17
70968;BME280;58629;48.808;8.820;2023-02-12T12:30:55;99059.81;;;7.60;80.58
70968;BME280;58629;48.808;8.820;2023-02-12T12:33:37;99051.53;;;7.61;79.80
70968;BME280;58629;48.808;8.820;2023-02-12T12:47:01;99044.31;;;7.74;80.66
70968;BME280;58629;48.808;8.820;2023-02-12T12:49:50;99040.38;;;7.99;79.50
70968;BME280;58629;48.808;8.820;2023-02-12T12:52:50;99035.69;;;8.08;78.74
70968;BME280;58629;48.808;8.820;2023-02-12T13:01:42;99019.56;;;7.94;79.28
70968;BME280;58629;48.808;8.820;2023-02-12T13:18:00;99007.13;;;7.95;79.38
70968;BME280;58629;48.808;8.820;2023-02-12T13:23:13;99005.31;;;7.99;79.62
70968;BME280;58629;48.808;8.820;2023-02-12T13:25:51;99004.69;;;7.86;79.18
70968;BME280;58629;48.808;8.820;2023-02-12T13:28:36;98997.63;;;7.90;79.16
70968;BME280;58629;48.808;8.820;2023-02-12T13:31:05;99006.63;;;7.89;78.43
70968;BME280;58629;48.808;8.820;2023-02-12T13:33:41;99006.63;;;7.73;79.25
70968;BME280;58629;48.808;8.820;2023-02-12T13:36:11;98999.25;;;7.63;79.55
70968;BME280;58629;48.808;8.820;2023-02-12T13:38:41;98995.59;;;7.68;80.17
70968;BME280;58629;48.808;8.820;2023-02-12T13:41:09;98996.19;;;7.61;80.85
70968;BME280;58629;48.808;8.820;2023-02-12T13:43:52;98995.66;;;7.71;80.77
70968;BME280;58629;48.808;8.820;2023-02-12T13:46:38;98992.09;;;7.79;80.88
70968;BME280;58629;48.808;8.820;2023-02-12T13:51:43;98986.41;;;8.28;79.15
70968;BME280;58629;48.808;8.820;2023-02-12T13:54:30;98979.09;;;8.40;78.17
70968;BME280;58629;48.808;8.820;2023-02-12T13:57:07;98978.56;;;8.31;77.78
70968;BME280;58629;48.808;8.820;2023-02-12T14:01:59;98970.78;;;8.23;77.69
70968;BME280;58629;48.808;8.820;2023-02-12T14:04:54;98979.22;;;8.28;77.53
70968;BME280;58629;48.808;8.820;2023-02-12T14:07:20;98973.72;;;8.18;77.49
70968;BME280;58629;48.808;8.820;2023-02-12T14:14:51;98967.66;;;8.17;78.13
70968;BME280;58629;48.808;8.820;2023-02-12T14:25:00;98961.06;;;8.61;76.94
70968;BME280;58629;48.808;8.820;2023-02-12T14:27:32;98957.78;;;8.68;76.00
70968;BME280;58629;48.808;8.820;2023-02-12T14:37:51;98945.53;;;8.60;76.52
70968;BME280;58629;48.808;8.820;2023-02-12T14:45:51;98953.69;;;8.70;75.58
70968;BME280;58629;48.808;8.820;2023-02-12T14:51:04;98949.38;;;8.62;77.15
70968;BME280;58629;48.808;8.820;2023-02-12T14:53:34;98953.41;;;8.56;76.48
70968;BME280;58629;48.808;8.820;2023-02-12T14:56:02;98951.19;;;8.58;76.57
70968;BME280;58629;48.808;8.820;2023-02-12T14:58:28;98954.84;;;8.54;76.79
70968;BME280;58629;48.808;8.820;2023-02-12T15:00:57;98950.00;;;8.56;76.96
70968;BME280;58629;48.808;8.820;2023-02-12T15:03:33;98945.22;;;8.61;76.67
70968;BME280;58629;48.808;8.820;2023-02-12T15:06:21;98947.16;;;8.64;76.36
70968;BME280;58629;48.808;8.820;2023-02-12T15:11:32;98946.03;;;8.46;77.06
70968;BME280;58629;48.808;8.820;2023-02-12T15:14:28;98941.88;;;8.45;76.34
70968;BME280;58629;48.808;8.820;2023-02-12T15:17:02;98942.84;;;8.37;76.81
70968;BME280;58629;48.808;8.820;2023-02-12T15:22:31;98955.56;;;8.51;76.51
70968;BME280;58629;48.808;8.820;2023-02-12T15:25:22;98939.25;;;8.45;76.48
70968;BME280;58629;48.808;8.820;2023-02-12T15:27:54;98938.13;;;8.46;75.97
70968;BME280;58629;48.808;8.820;2023-02-12T15:30:47;98949.38;;;8.43;76.24
70968;BME280;58629;48.808;8.820;2023-02-12T15:33:25;98947.22;;;8.30;77.13
70968;BME280;58629;48.808;8.820;2023-02-12T15:35:52;98941.78;;;8.23;77.76
70968;BME280;58629;48.808;8.820;2023-02-12T15:38:19;98932.53;;;8.13;78.16
70968;BME280;58629;48.808;8.820;2023-02-12T15:40:58;98938.66;;;8.17;77.99